Time;durP1;ratioP1;P1;durP2;ratioP2;P2;SDS_P1;SDS_P2;PMS_P1;PMS_P2;Temp;Humidity;BMP_temperature;BMP_pressure;BME280_temperature;BME280_humidity;BME280_pressure;Samples;Min_cycle;Max_cycle;Signal;HPM_P1;HPM_P2
2022/06/28 00:01:32;;;;;;;2.30;1.50;;;21.90;99.90;;;;;;5029845;28;20673;-83
2022/06/28 00:04:02;;;;;;;1.67;1.50;;;21.90;99.90;;;;;;5039439;28;20630;-81
2022/06/28 00:06:35;;;;;;;1.30;1.30;;;21.90;99.90;;;;;;5047587;28;20637;-82
2022/06/28 00:09:05;;;;;;;3.43;1.87;;;21.90;99.90;;;;;;5043530;28;21298;-81
2022/06/28 00:11:32;;;;;;;3.67;1.43;;;21.90;99.90;;;;;;5046271;28;21243;-82
2022/06/28 00:13:59;;;;;;;1.60;1.37;;;21.90;99.90;;;;;;5048014;28;20625;-83
2022/06/28 00:16:24;;;;;;;3.23;1.60;;;21.80;99.90;;;;;;5045234;28;21176;-83
2022/06/28 00:18:51;;;;;;;1.60;1.40;;;21.90;99.90;;;;;;5045970;28;20627;-82
2022/06/28 00:21:20;;;;;;;1.47;1.37;;;21.90;99.90;;;;;;5045774;28;20230;-83
2022/06/28 00:23:48;;;;;;;1.70;1.47;;;21.90;99.90;;;;;;5052307;28;21257;-82
2022/06/28 00:26:15;;;;;;;2.23;2.13;;;21.90;99.90;;;;;;5049690;28;20652;-82
2022/06/28 00:28:42;;;;;;;1.60;1.50;;;21.90;99.90;;;;;;5043256;28;20640;-83
2022/06/28 00:31:09;;;;;;;2.80;1.50;;;21.80;99.90;;;;;;5048407;28;20666;-83
2022/06/28 00:33:36;;;;;;;2.10;1.63;;;21.90;99.90;;;;;;5043207;28;20613;-82
2022/06/28 00:36:03;;;;;;;1.70;1.60;;;21.80;99.90;;;;;;5050667;28;21179;-82
2022/06/28 00:38:30;;;;;;;1.43;1.33;;;21.90;99.90;;;;;;5042421;28;20666;-83
2022/06/28 00:40:58;;;;;;;3.33;1.37;;;21.80;99.90;;;;;;5047118;28;20649;-82
2022/06/28 00:43:26;;;;;;;1.73;1.63;;;21.80;99.90;;;;;;5021760;28;21374;-82
2022/06/28 00:45:52;;;;;;;1.87;1.30;;;21.80;99.90;;;;;;5041540;28;20640;-82
2022/06/28 00:48:19;;;;;;;1.60;1.50;;;21.80;99.90;;;;;;5038825;28;21212;-83
2022/06/28 00:50:47;;;;;;;2.20;1.30;;;21.80;99.90;;;;;;5035646;28;21685;-82
2022/06/28 00:53:15;;;;;;;1.77;1.67;;;21.80;99.90;;;;;;5038661;28;20626;-81
2022/06/28 00:55:43;;;;;;;1.60;1.50;;;21.80;99.90;;;;;;5040876;28;20634;-82
2022/06/28 00:58:12;;;;;;;1.90;1.80;;;21.80;99.90;;;;;;5039758;28;20662;-81
2022/06/28 01:00:41;;;;;;;2.10;1.43;;;21.80;99.90;;;;;;5036854;28;20661;-81
2022/06/28 01:03:09;;;;;;;2.83;1.47;;;21.80;99.90;;;;;;5041181;28;20623;-82
2022/06/28 01:05:37;;;;;;;2.87;1.47;;;21.80;99.90;;;;;;5040604;28;21218;-82
2022/06/28 01:08:06;;;;;;;2.87;1.43;;;21.80;99.90;;;;;;5033347;28;20720;-82
2022/06/28 01:10:32;;;;;;;2.90;1.60;;;21.70;99.90;;;;;;5032635;28;20765;-82
2022/06/28 01:12:59;;;;;;;1.30;1.20;;;21.70;99.90;;;;;;5042309;28;20638;-82
2022/06/28 01:15:28;;;;;;;2.83;1.30;;;21.70;99.90;;;;;;5038023;28;20635;-83
2022/06/28 01:17:55;;;;;;;2.83;1.10;;;21.70;99.90;;;;;;5045127;28;20669;-83
2022/06/28 01:20:23;;;;;;;3.60;1.47;;;21.70;99.90;;;;;;5049719;28;20665;-81
2022/06/28 01:22:51;;;;;;;1.40;1.30;;;21.70;99.90;;;;;;5045891;28;20617;-82
2022/06/28 01:25:18;;;;;;;1.30;1.20;;;21.70;99.90;;;;;;5049969;28;21594;-82
2022/06/28 01:27:46;;;;;;;1.73;1.47;;;21.60;99.90;;;;;;5048503;28;20664;-82
2022/06/28 01:30:13;;;;;;;1.73;1.20;;;21.60;99.90;;;;;;5047449;28;21660;-82
2022/06/28 01:32:40;;;;;;;1.63;1.20;;;21.60;99.90;;;;;;5049447;28;20632;-82
2022/06/28 01:35:08;;;;;;;1.60;1.50;;;21.60;99.90;;;;;;5044762;28;20630;-82
2022/06/28 01:37:36;;;;;;;1.93;1.10;;;21.60;99.90;;;;;;5050045;28;20674;-81
2022/06/28 01:40:07;;;;;;;1.20;1.10;;;21.60;99.90;;;;;;5045829;28;20661;-82
2022/06/28 01:42:35;;;;;;;2.73;1.00;;;21.60;99.90;;;;;;5045851;28;20655;-82
2022/06/28 01:45:03;;;;;;;6.00;1.10;;;21.60;99.90;;;;;;5047333;28;21192;-82
2022/06/28 01:47:35;;;;;;;1.40;1.17;;;21.60;99.90;;;;;;5051407;28;20633;-82
2022/06/28 01:50:02;;;;;;;1.67;0.90;;;21.60;99.90;;;;;;5046102;28;20646;-83
2022/06/28 01:52:29;;;;;;;2.10;1.10;;;21.60;99.90;;;;;;5048377;28;20634;-82
2022/06/28 01:54:56;;;;;;;3.33;0.90;;;21.60;99.90;;;;;;5049749;28;20691;-82
2022/06/28 01:57:24;;;;;;;1.30;1.20;;;21.60;99.90;;;;;;5050127;28;20676;-82
2022/06/28 01:59:54;;;;;;;2.50;0.90;;;21.60;99.90;;;;;;5047913;28;20641;-82
2022/06/28 02:02:23;;;;;;;1.13;1.03;;;21.60;99.90;;;;;;5042026;28;20996;-82
2022/06/28 02:04:50;;;;;;;0.90;0.90;;;21.60;99.90;;;;;;5055232;28;20653;-82
2022/06/28 02:07:17;;;;;;;1.20;1.10;;;21.60;99.90;;;;;;5051884;28;20630;-81
2022/06/28 02:09:44;;;;;;;0.73;0.70;;;21.60;99.90;;;;;;5026152;28;20661;-81
2022/06/28 02:12:11;;;;;;;0.60;0.60;;;21.60;99.90;;;;;;5041263;28;20629;-82
2022/06/28 02:14:39;;;;;;;1.23;0.90;;;21.60;99.90;;;;;;5048240;28;20629;-82
2022/06/28 02:17:06;;;;;;;0.73;0.73;;;21.50;99.90;;;;;;5041334;28;20631;-81
2022/06/28 02:19:33;;;;;;;1.50;1.20;;;21.50;99.90;;;;;;5041106;28;20676;-81
2022/06/28 02:22:00;;;;;;;1.23;0.90;;;21.50;99.90;;;;;;5049433;28;20619;-82
2022/06/28 02:24:27;;;;;;;1.13;0.97;;;21.50;99.90;;;;;;5046572;28;20622;-82
2022/06/28 02:26:53;;;;;;;0.87;0.87;;;21.50;99.90;;;;;;5044062;28;20620;-82
2022/06/28 02:29:20;;;;;;;4.30;0.90;;;21.50;99.90;;;;;;5045415;28;20652;-82
2022/06/28 02:31:50;;;;;;;0.87;0.83;;;21.50;99.90;;;;;;5044955;28;20635;-82
2022/06/28 02:42:41;;;;;;;5.80;0.80;;;21.40;99.90;;;;;;4982285;28;20613;-83
2022/06/28 02:45:09;;;;;;;1.97;1.10;;;21.30;99.90;;;;;;4981226;28;20652;-82
2022/06/28 02:47:37;;;;;;;1.10;0.90;;;21.30;99.90;;;;;;5005596;28;20642;-83
2022/06/28 02:50:04;;;;;;;3.97;1.00;;;21.30;99.90;;;;;;5042646;28;21114;-82
2022/06/28 02:52:31;;;;;;;1.20;1.10;;;21.30;99.90;;;;;;5045830;28;20657;-83
2022/06/28 02:54:58;;;;;;;0.93;0.93;;;21.30;99.90;;;;;;5041611;28;20649;-83
2022/06/28 02:57:26;;;;;;;1.07;0.80;;;21.30;99.90;;;;;;5043530;28;20677;-82
2022/06/28 02:59:53;;;;;;;1.00;0.90;;;21.30;99.90;;;;;;5038664;28;20684;-82
2022/06/28 03:02:19;;;;;;;1.10;0.70;;;21.30;99.90;;;;;;5043211;28;21192;-82
2022/06/28 03:04:47;;;;;;;0.77;0.70;;;21.30;99.90;;;;;;5038707;28;20747;-82
2022/06/28 03:07:14;;;;;;;1.40;1.30;;;21.30;99.90;;;;;;5037762;28;20625;-82
2022/06/28 03:09:42;;;;;;;0.90;0.90;;;21.20;99.90;;;;;;5038419;28;20770;-82
2022/06/28 03:12:09;;;;;;;1.13;0.97;;;21.20;99.90;;;;;;5042955;28;20625;-83
2022/06/28 03:14:36;;;;;;;1.10;0.97;;;21.30;99.90;;;;;;5040543;28;20718;-83
2022/06/28 03:17:03;;;;;;;3.33;0.80;;;21.30;99.90;;;;;;5042730;28;21833;-82
2022/06/28 03:19:29;;;;;;;1.53;0.93;;;21.20;99.90;;;;;;5035103;28;20696;-81
2022/06/28 03:21:58;;;;;;;1.90;1.37;;;21.20;99.90;;;;;;5054769;28;20635;-81
2022/06/28 03:24:24;;;;;;;0.83;0.80;;;21.20;99.90;;;;;;5045588;28;21004;-82
2022/06/28 03:26:51;;;;;;;0.67;0.63;;;21.20;99.90;;;;;;5049057;28;20974;-82
2022/06/28 03:29:19;;;;;;;1.50;0.77;;;21.20;99.90;;;;;;5039234;28;21012;-81
2022/06/28 03:31:46;;;;;;;2.03;1.30;;;21.20;99.90;;;;;;5038811;28;20634;-82
2022/06/28 03:34:13;;;;;;;1.30;1.20;;;21.20;99.90;;;;;;5040841;28;20742;-81
2022/06/28 03:36:40;;;;;;;2.20;0.70;;;21.20;99.90;;;;;;5043558;28;20633;-82
2022/06/28 03:39:08;;;;;;;1.20;1.10;;;21.20;99.90;;;;;;5044943;28;20700;-81
2022/06/28 03:41:35;;;;;;;1.70;1.17;;;21.20;99.90;;;;;;5046391;28;20636;-82
2022/06/28 03:44:03;;;;;;;4.33;1.07;;;21.20;99.90;;;;;;5045521;28;21160;-82
2022/06/28 03:46:30;;;;;;;1.20;1.10;;;21.20;99.90;;;;;;5044831;28;20707;-82
2022/06/28 03:48:57;;;;;;;1.10;0.90;;;21.20;99.90;;;;;;5043092;28;20757;-82
2022/06/28 03:51:24;;;;;;;1.20;0.97;;;21.20;99.90;;;;;;5044852;28;20665;-82
2022/06/28 03:53:50;;;;;;;0.80;0.80;;;21.20;99.90;;;;;;5051496;28;20625;-82
2022/06/28 03:56:19;;;;;;;1.00;1.00;;;21.20;99.90;;;;;;5045425;28;20641;-82
2022/06/28 03:58:46;;;;;;;1.00;0.90;;;21.30;99.90;;;;;;5043077;28;20649;-83
2022/06/28 04:01:12;;;;;;;4.10;1.00;;;21.30;99.90;;;;;;5044064;28;20747;-83
2022/06/28 04:03:39;;;;;;;5.17;0.80;;;21.30;99.90;;;;;;5043097;28;20638;-82
2022/06/28 04:06:06;;;;;;;1.43;0.80;;;21.30;99.90;;;;;;5044763;28;21334;-83
2022/06/28 04:08:33;;;;;;;1.93;1.00;;;21.20;99.90;;;;;;5039527;28;20626;-82
2022/06/28 04:11:15;;;;;;;0.80;0.80;;;21.30;99.90;;;;;;5042416;28;20654;-83
2022/06/28 04:13:45;;;;;;;1.47;0.77;;;21.30;99.90;;;;;;5047149;28;20632;-82
2022/06/28 04:16:12;;;;;;;2.20;1.13;;;21.30;99.90;;;;;;5046521;28;21231;-83
2022/06/28 04:18:39;;;;;;;5.07;1.00;;;21.30;99.90;;;;;;5046220;28;20656;-83
2022/06/28 04:21:07;;;;;;;1.13;1.00;;;21.30;99.90;;;;;;5045672;28;20741;-83
2022/06/28 04:23:33;;;;;;;1.13;1.03;;;21.30;99.90;;;;;;5047248;28;20680;-82
2022/06/28 04:26:01;;;;;;;1.50;0.97;;;21.30;99.90;;;;;;5039635;28;20657;-83
2022/06/28 04:28:28;;;;;;;0.70;0.70;;;21.30;99.90;;;;;;5033455;28;20847;-82
2022/06/28 04:30:57;;;;;;;1.60;0.90;;;21.30;99.90;;;;;;5041237;28;20645;-82
2022/06/28 04:33:24;;;;;;;1.57;1.13;;;21.30;99.90;;;;;;5045069;28;20645;-83
2022/06/28 04:35:51;;;;;;;1.17;1.07;;;21.30;99.90;;;;;;5033584;28;20641;-83
2022/06/28 04:38:18;;;;;;;1.13;1.07;;;21.40;99.90;;;;;;5039524;28;20658;-83
2022/06/28 04:40:45;;;;;;;1.23;0.80;;;21.30;99.90;;;;;;5038920;28;21021;-83
2022/06/28 04:43:12;;;;;;;0.70;0.70;;;21.30;99.90;;;;;;5042345;28;20646;-83
2022/06/28 04:45:39;;;;;;;2.20;1.00;;;21.30;99.90;;;;;;5043056;28;20649;-84
2022/06/28 04:48:08;;;;;;;0.87;0.87;;;21.40;99.90;;;;;;5038556;28;21220;-83
2022/06/28 04:50:35;;;;;;;1.07;0.83;;;21.40;99.90;;;;;;5039548;28;20658;-83
2022/06/28 04:53:02;;;;;;;0.80;0.80;;;21.40;99.90;;;;;;5039225;28;20631;-82
2022/06/28 04:55:28;;;;;;;0.80;0.80;;;21.50;99.90;;;;;;5040680;28;20617;-82
2022/06/28 04:57:56;;;;;;;3.57;1.20;;;21.50;99.90;;;;;;5039533;28;20635;-83
2022/06/28 05:00:22;;;;;;;0.90;0.80;;;21.50;99.90;;;;;;5038496;28;20657;-83
2022/06/28 05:02:50;;;;;;;1.83;1.00;;;21.50;99.90;;;;;;5037574;28;21178;-83
2022/06/28 05:05:18;;;;;;;1.07;0.60;;;21.50;99.90;;;;;;5039178;28;20617;-83
2022/06/28 05:07:44;;;;;;;1.53;0.93;;;21.50;99.90;;;;;;5034434;28;20630;-83
2022/06/28 05:10:11;;;;;;;2.40;1.00;;;21.50;99.90;;;;;;5040248;28;20658;-84
2022/06/28 05:12:39;;;;;;;0.77;0.77;;;21.50;99.90;;;;;;5039412;28;20636;-83
2022/06/28 05:15:07;;;;;;;1.37;0.77;;;21.50;99.90;;;;;;5044866;28;20624;-84
2022/06/28 05:17:34;;;;;;;1.40;1.17;;;21.50;99.90;;;;;;5038027;28;21222;-84
2022/06/28 05:20:02;;;;;;;0.90;0.90;;;21.50;99.90;;;;;;5040322;28;21032;-84
2022/06/28 05:22:31;;;;;;;1.63;1.03;;;21.40;99.90;;;;;;5036199;28;21046;-84
2022/06/28 05:24:58;;;;;;;1.20;1.10;;;21.40;99.90;;;;;;5040054;28;21168;-84
2022/06/28 05:27:25;;;;;;;1.20;1.20;;;21.50;99.90;;;;;;5038999;28;20637;-85
2022/06/28 05:29:52;;;;;;;2.77;1.20;;;21.50;99.90;;;;;;5032984;28;20739;-84
2022/06/28 05:32:19;;;;;;;1.67;1.00;;;21.50;99.90;;;;;;5039558;28;20644;-84
2022/06/28 05:34:46;;;;;;;1.37;1.27;;;21.40;99.90;;;;;;5038195;28;21038;-84
2022/06/28 05:37:12;;;;;;;1.40;1.20;;;21.40;99.90;;;;;;5044452;28;20637;-84
2022/06/28 05:39:41;;;;;;;2.67;1.43;;;21.40;99.90;;;;;;5038024;28;20677;-84
2022/06/28 05:42:08;;;;;;;2.63;2.10;;;21.40;99.90;;;;;;5037860;28;20622;-84
2022/06/28 05:44:34;;;;;;;4.47;2.87;;;21.40;99.90;;;;;;5036595;28;20652;-84
2022/06/28 05:47:01;;;;;;;2.27;2.07;;;21.40;99.90;;;;;;5034758;28;20630;-84
2022/06/28 05:49:28;;;;;;;1.73;1.37;;;21.40;99.90;;;;;;5040282;28;20626;-84
2022/06/28 05:51:55;;;;;;;2.50;2.30;;;21.40;99.90;;;;;;5037379;28;21010;-84
2022/06/28 05:54:22;;;;;;;2.30;1.67;;;21.40;99.90;;;;;;5045794;28;20646;-83
2022/06/28 05:56:50;;;;;;;3.33;1.57;;;21.40;99.90;;;;;;5046334;28;20637;-83
2022/06/28 05:59:17;;;;;;;1.83;1.73;;;21.50;99.90;;;;;;5039596;28;20986;-84
2022/06/28 06:01:44;;;;;;;1.30;1.20;;;21.50;99.90;;;;;;5041817;28;20629;-84
2022/06/28 06:04:11;;;;;;;2.57;2.37;;;21.60;99.90;;;;;;5041616;28;20643;-85
2022/06/28 06:06:37;;;;;;;2.60;2.37;;;21.60;99.90;;;;;;5042754;28;20645;-86
2022/06/28 06:09:04;;;;;;;1.70;1.60;;;21.70;99.90;;;;;;5043967;28;20622;-86
2022/06/28 06:11:31;;;;;;;1.80;1.70;;;21.80;99.90;;;;;;5047618;28;20658;-82
2022/06/28 06:13:59;;;;;;;5.13;2.77;;;21.80;99.90;;;;;;5048140;28;20589;-84
2022/06/28 06:16:26;;;;;;;2.50;2.30;;;21.80;99.90;;;;;;5046718;28;21253;-83
2022/06/28 06:18:53;;;;;;;2.83;2.40;;;21.90;99.90;;;;;;5043931;28;20657;-83
2022/06/28 06:21:20;;;;;;;5.30;3.37;;;21.90;99.90;;;;;;5048137;28;20649;-84
2022/06/28 06:23:47;;;;;;;3.80;2.80;;;21.90;99.90;;;;;;5039024;28;20703;-83
2022/06/28 06:26:13;;;;;;;2.50;2.30;;;21.90;99.90;;;;;;5046250;28;20634;-83
2022/06/28 06:28:40;;;;;;;2.63;2.50;;;21.90;99.90;;;;;;5042676;28;21115;-83
2022/06/28 06:31:09;;;;;;;4.40;4.10;;;21.90;99.90;;;;;;5045236;28;20653;-83
2022/06/28 06:33:36;;;;;;;6.40;6.00;;;21.90;99.90;;;;;;5043366;28;20649;-84
2022/06/28 06:36:03;;;;;;;6.87;6.40;;;21.60;99.90;;;;;;5039426;28;20626;-84
2022/06/28 06:38:30;;;;;;;6.10;5.60;;;21.30;99.90;;;;;;5044225;28;20622;-84
2022/06/28 06:40:58;;;;;;;6.37;5.77;;;21.20;99.90;;;;;;5040985;28;21071;-84
2022/06/28 06:43:27;;;;;;;5.97;5.40;;;21.10;99.90;;;;;;5044662;28;20616;-84
2022/06/28 06:45:55;;;;;;;8.23;6.57;;;21.10;99.90;;;;;;5042461;28;20622;-84
2022/06/28 06:48:23;;;;;;;7.13;6.53;;;21.00;99.90;;;;;;5041447;28;20712;-84
2022/06/28 06:50:50;;;;;;;6.63;5.83;;;21.00;99.90;;;;;;5043935;28;20650;-83
2022/06/28 06:53:20;;;;;;;7.07;6.40;;;21.10;99.90;;;;;;5048581;28;20625;-83
2022/06/28 06:55:47;;;;;;;6.63;6.13;;;21.00;99.90;;;;;;5044459;28;20661;-83
2022/06/28 06:58:14;;;;;;;6.03;5.50;;;21.00;99.90;;;;;;5051575;28;20625;-84
2022/06/28 07:00:41;;;;;;;6.03;5.63;;;21.00;99.90;;;;;;5044207;28;20673;-83
2022/06/28 07:03:08;;;;;;;6.40;5.90;;;20.90;99.90;;;;;;5042686;28;21037;-84
2022/06/28 07:05:36;;;;;;;6.80;6.30;;;21.00;99.90;;;;;;5041908;28;20645;-84
2022/06/28 07:08:04;;;;;;;6.50;6.10;;;20.90;99.90;;;;;;5040881;28;20625;-84
2022/06/28 07:10:31;;;;;;;6.80;6.30;;;20.80;99.90;;;;;;5039522;28;20652;-84
2022/06/28 07:12:57;;;;;;;6.10;5.60;;;20.80;99.90;;;;;;5045500;28;20631;-84
2022/06/28 07:15:24;;;;;;;7.37;6.67;;;20.70;99.90;;;;;;5047840;28;20629;-84
2022/06/28 07:17:51;;;;;;;7.50;6.90;;;20.60;99.90;;;;;;5042799;28;21150;-84
2022/06/28 07:20:18;;;;;;;6.70;6.20;;;20.50;99.90;;;;;;5044212;28;21220;-83
2022/06/28 07:22:47;;;;;;;7.67;6.87;;;20.50;99.90;;;;;;5044234;28;20625;-83
2022/06/28 07:25:14;;;;;;;6.87;6.37;;;20.40;99.90;;;;;;5046148;28;20648;-84
2022/06/28 07:27:41;;;;;;;6.30;5.80;;;20.40;99.90;;;;;;5043642;28;21897;-84
2022/06/28 07:30:09;;;;;;;6.37;5.97;;;20.30;99.90;;;;;;5047718;28;20654;-84
2022/06/28 07:32:36;;;;;;;5.93;5.53;;;20.20;99.90;;;;;;5044743;28;20987;-83
2022/06/28 07:35:04;;;;;;;6.93;6.30;;;20.20;99.90;;;;;;5043457;28;21232;-83
2022/06/28 07:37:31;;;;;;;7.70;7.10;;;20.10;99.90;;;;;;5040791;28;20625;-82
2022/06/28 07:39:59;;;;;;;8.10;5.87;;;19.90;99.90;;;;;;5038182;28;20682;-83
2022/06/28 07:42:26;;;;;;;6.83;5.40;;;19.90;99.90;;;;;;5046439;28;20626;-83
2022/06/28 07:44:53;;;;;;;4.70;4.40;;;19.90;99.90;;;;;;5039329;28;21089;-83
2022/06/28 07:47:21;;;;;;;10.80;5.60;;;19.90;99.90;;;;;;5043476;28;21188;-84
2022/06/28 07:52:35;;;;;;;6.00;5.60;;;20.20;99.90;;;;;;5044566;28;20605;-83
2022/06/28 07:55:06;;;;;;;6.03;5.63;;;20.40;99.90;;;;;;5042727;28;20626;-83
2022/06/28 07:57:33;;;;;;;6.10;5.43;;;20.50;99.90;;;;;;5043005;28;20632;-83
2022/06/28 08:00:01;;;;;;;6.40;5.90;;;20.60;99.90;;;;;;5041423;28;20689;-83
2022/06/28 08:02:29;;;;;;;4.60;4.30;;;20.80;99.90;;;;;;5043251;28;20633;-84
2022/06/28 08:04:56;;;;;;;6.57;6.17;;;20.90;99.90;;;;;;5039178;28;20623;-84
2022/06/28 08:07:23;;;;;;;5.00;4.60;;;21.10;99.90;;;;;;5040477;28;20671;-84
2022/06/28 08:09:50;;;;;;;5.90;5.50;;;21.30;99.90;;;;;;5038357;28;20658;-83
2022/06/28 08:12:19;;;;;;;5.10;4.70;;;21.50;99.90;;;;;;5042189;28;20641;-83
2022/06/28 08:14:46;;;;;;;4.47;4.17;;;21.70;99.90;;;;;;5045657;28;21082;-84
2022/06/28 08:17:13;;;;;;;4.70;4.33;;;21.80;99.90;;;;;;5041650;28;20879;-84
2022/06/28 08:19:41;;;;;;;5.83;4.70;;;21.90;99.90;;;;;;5044199;28;21248;-84
2022/06/28 08:22:08;;;;;;;5.30;5.00;;;22.00;99.90;;;;;;5042797;28;20663;-84
2022/06/28 08:24:35;;;;;;;5.43;5.03;;;22.00;99.90;;;;;;5041255;28;20614;-84
2022/06/28 08:27:01;;;;;;;4.90;4.60;;;22.10;99.90;;;;;;5038688;28;20706;-84
2022/06/28 08:29:31;;;;;;;4.90;4.20;;;22.10;99.90;;;;;;5042662;28;20626;-84
2022/06/28 08:31:58;;;;;;;4.13;3.73;;;22.10;99.90;;;;;;5039500;28;20707;-84
2022/06/28 08:34:25;;;;;;;5.30;4.80;;;22.20;99.90;;;;;;5041082;28;20634;-84
2022/06/28 08:36:52;;;;;;;4.63;4.33;;;22.40;99.90;;;;;;5042457;28;20633;-84
2022/06/28 08:39:19;;;;;;;4.33;3.80;;;22.50;99.90;;;;;;5040062;28;20662;-84
2022/06/28 08:41:47;;;;;;;4.10;3.77;;;22.70;99.90;;;;;;5039491;28;20628;-84
2022/06/28 08:44:17;;;;;;;4.47;4.17;;;22.80;99.90;;;;;;5042247;28;20622;-84
2022/06/28 08:46:46;;;;;;;3.50;3.30;;;23.00;99.90;;;;;;5039965;28;21188;-83
2022/06/28 08:49:15;;;;;;;4.53;3.80;;;23.30;99.90;;;;;;5041536;28;20606;-84
2022/06/28 08:51:43;;;;;;;3.17;2.93;;;23.60;99.90;;;;;;5041403;28;20641;-84
2022/06/28 08:54:10;;;;;;;4.80;3.63;;;23.80;99.90;;;;;;5041403;28;20625;-84
2022/06/28 08:56:39;;;;;;;5.20;3.33;;;23.80;99.90;;;;;;5038989;28;21000;-84
2022/06/28 08:59:07;;;;;;;4.00;3.70;;;24.00;99.90;;;;;;5039039;28;21225;-84
2022/06/28 09:01:35;;;;;;;3.40;3.20;;;24.30;99.90;;;;;;5038273;28;20725;-83
2022/06/28 09:04:05;;;;;;;2.97;2.77;;;24.40;99.90;;;;;;5038037;28;20615;-83
2022/06/28 09:06:32;;;;;;;2.83;2.63;;;24.50;99.90;;;;;;5039232;28;20666;-85
2022/06/28 09:08:58;;;;;;;3.33;3.03;;;24.70;99.90;;;;;;5036084;28;20626;-83
2022/06/28 09:11:26;;;;;;;2.80;2.60;;;24.80;99.90;;;;;;5040561;28;20757;-82
2022/06/28 09:13:53;;;;;;;2.90;2.70;;;24.90;99.90;;;;;;5041139;28;20633;-86
2022/06/28 09:16:20;;;;;;;2.97;2.77;;;24.90;99.90;;;;;;5042108;28;20744;-83
2022/06/28 09:18:49;;;;;;;3.00;2.43;;;25.00;99.90;;;;;;5037101;28;20614;-82
2022/06/28 09:21:19;;;;;;;3.10;2.90;;;24.90;99.90;;;;;;5043610;28;20681;-82
2022/06/28 09:23:48;;;;;;;4.50;2.80;;;25.00;99.90;;;;;;5038122;28;20610;-82
2022/06/28 09:26:17;;;;;;;3.23;3.00;;;25.10;99.90;;;;;;5043186;28;20813;-82
2022/06/28 09:28:46;;;;;;;2.83;2.63;;;25.10;99.90;;;;;;5037208;28;20630;-82
2022/06/28 09:31:23;;;;;;;2.87;2.67;;;25.10;99.90;;;;;;5039816;28;20645;-83
2022/06/28 09:34:04;;;;;;;2.70;2.50;;;25.10;99.90;;;;;;5039301;28;20637;-83
2022/06/28 09:36:35;;;;;;;3.50;3.30;;;25.10;99.90;;;;;;5038524;28;20628;-83
2022/06/28 09:39:13;;;;;;;2.60;2.50;;;25.20;99.90;;;;;;5041112;28;20623;-83
2022/06/28 09:41:45;;;;;;;5.20;2.53;;;25.10;99.90;;;;;;5040414;28;21092;-83
2022/06/28 09:44:12;;;;;;;1.97;1.87;;;25.10;99.90;;;;;;5038542;28;20634;-83
2022/06/28 09:46:40;;;;;;;3.20;2.70;;;25.20;99.90;;;;;;5040684;28;20628;-83
2022/06/28 09:49:09;;;;;;;2.27;2.13;;;25.20;99.90;;;;;;5040886;28;21340;-82
2022/06/28 09:51:38;;;;;;;5.53;2.13;;;25.20;99.90;;;;;;5035470;28;20613;-82
2022/06/28 09:54:07;;;;;;;4.67;2.33;;;25.20;99.90;;;;;;5040231;28;20617;-82
2022/06/28 09:56:36;;;;;;;2.00;1.90;;;25.20;99.90;;;;;;5042325;28;20634;-82
2022/06/28 09:59:05;;;;;;;2.03;1.93;;;25.10;99.90;;;;;;5039115;28;20641;-83
2022/06/28 10:01:32;;;;;;;1.60;1.50;;;25.20;99.90;;;;;;5041423;28;20674;-83
2022/06/28 10:03:59;;;;;;;3.20;1.93;;;25.30;99.90;;;;;;5041972;28;21202;-83
2022/06/28 10:06:26;;;;;;;2.40;1.73;;;25.20;99.90;;;;;;5036060;28;20637;-83
2022/06/28 10:08:55;;;;;;;2.27;2.07;;;25.30;99.90;;;;;;5036657;28;20630;-83
2022/06/28 10:11:22;;;;;;;1.87;1.77;;;25.30;99.90;;;;;;5031838;28;21250;-84
2022/06/28 10:16:46;;;;;;;3.00;2.37;;;25.30;99.90;;;;;;5042145;28;20605;-84
2022/06/28 10:19:17;;;;;;;1.80;1.70;;;25.40;99.90;;;;;;5039481;28;20675;-84
2022/06/28 10:22:07;;;;;;;2.20;2.10;;;25.50;99.90;;;;;;5033297;28;20662;-85
2022/06/28 10:24:52;;;;;;;1.90;1.80;;;25.60;99.90;;;;;;5031330;28;20622;-83
2022/06/28 10:27:19;;;;;;;1.70;1.60;;;25.60;99.90;;;;;;5038157;28;20999;-83
2022/06/28 10:30:18;;;;;;;2.03;1.90;;;25.80;99.90;;;;;;5039253;28;20733;-83
2022/06/28 10:32:48;;;;;;;1.90;1.80;;;25.90;99.90;;;;;;5039372;28;20632;-84
2022/06/28 10:36:03;;;;;;;2.07;1.47;;;26.10;99.90;;;;;;5039645;28;20610;-83
2022/06/28 10:38:31;;;;;;;1.70;1.60;;;26.10;99.50;;;;;;5028882;28;20616;-83
2022/06/28 10:41:14;;;;;;;2.10;1.80;;;26.00;99.90;;;;;;5043930;28;20677;-83
2022/06/28 10:43:47;;;;;;;2.20;2.10;;;26.20;99.90;;;;;;5044141;28;21104;-83
2022/06/28 10:46:15;;;;;;;2.50;2.30;;;26.40;99.90;;;;;;5042038;28;20625;-85
2022/06/28 10:49:09;;;;;;;3.30;3.03;;;26.60;98.80;;;;;;5040840;28;21053;-83
2022/06/28 10:51:41;;;;;;;2.83;2.47;;;26.70;98.50;;;;;;5036069;28;20630;-84
2022/06/28 10:54:10;;;;;;;1.90;1.80;;;26.80;97.50;;;;;;5046811;28;20653;-84
2022/06/28 10:56:43;;;;;;;2.17;2.07;;;27.00;96.30;;;;;;5042377;28;20624;-85
2022/06/28 10:59:12;;;;;;;1.53;1.43;;;27.20;97.30;;;;;;5044782;28;20626;-83
2022/06/28 11:01:58;;;;;;;1.63;1.53;;;27.30;97.10;;;;;;5041913;28;20715;-83
2022/06/28 11:04:30;;;;;;;2.07;1.93;;;27.50;96.80;;;;;;5042588;28;20621;-84
2022/06/28 11:07:06;;;;;;;2.13;1.50;;;27.70;97.00;;;;;;5043751;28;21294;-83
2022/06/28 11:09:48;;;;;;;3.27;2.00;;;27.60;96.40;;;;;;5042934;28;21310;-83
2022/06/28 11:12:20;;;;;;;2.20;2.10;;;27.90;96.10;;;;;;5043237;28;20625;-83
2022/06/28 11:14:52;;;;;;;1.80;1.70;;;28.20;94.90;;;;;;5045802;28;20630;-83
2022/06/28 11:17:23;;;;;;;2.03;1.93;;;28.30;93.70;;;;;;5039837;28;20622;-83
2022/06/28 11:19:53;;;;;;;1.90;1.80;;;28.40;93.00;;;;;;5042735;28;20645;-83
2022/06/28 11:22:25;;;;;;;2.00;1.90;;;28.40;93.10;;;;;;5039585;28;21158;-83
2022/06/28 11:24:54;;;;;;;2.13;2.03;;;28.60;92.50;;;;;;5045546;28;20643;-83
2022/06/28 11:27:22;;;;;;;1.93;1.83;;;28.60;92.00;;;;;;5041624;28;20620;-83
2022/06/28 11:29:51;;;;;;;2.67;1.80;;;28.70;92.00;;;;;;5043269;28;20669;-84
2022/06/28 11:32:20;;;;;;;1.80;1.70;;;28.70;92.10;;;;;;5046472;28;21086;-84
2022/06/28 11:35:01;;;;;;;2.37;1.90;;;28.90;91.70;;;;;;5041595;28;20660;-84
2022/06/28 11:37:30;;;;;;;1.80;1.70;;;28.70;90.90;;;;;;5044008;28;20622;-83
2022/06/28 11:39:59;;;;;;;2.10;1.90;;;28.90;91.10;;;;;;5039533;28;20770;-84
2022/06/28 11:42:28;;;;;;;1.63;1.53;;;28.90;91.00;;;;;;5046551;28;20629;-85
2022/06/28 11:44:57;;;;;;;2.30;1.50;;;28.90;91.60;;;;;;5041397;28;20611;-84
2022/06/28 11:47:24;;;;;;;1.87;1.77;;;28.90;92.10;;;;;;5045668;28;20628;-84
2022/06/28 11:50:13;;;;;;;1.83;1.70;;;28.70;91.10;;;;;;5040989;28;20673;-84
2022/06/28 11:52:51;;;;;;;3.97;2.07;;;28.60;91.60;;;;;;5041671;28;20688;-84
2022/06/28 11:55:20;;;;;;;1.87;1.77;;;28.50;91.10;;;;;;5046459;28;20645;-84
2022/06/28 11:58:13;;;;;;;2.37;1.80;;;28.60;91.50;;;;;;5039639;28;20622;-83
2022/06/28 12:00:40;;;;;;;1.70;1.60;;;28.70;92.00;;;;;;5037409;28;20678;-84
2022/06/28 12:03:07;;;;;;;2.93;1.63;;;28.70;92.50;;;;;;5041404;28;20645;-84
2022/06/28 12:05:35;;;;;;;3.27;1.50;;;28.90;91.30;;;;;;5041865;28;20633;-84
2022/06/28 12:08:04;;;;;;;1.70;1.60;;;29.10;90.60;;;;;;5037040;28;20994;-84
2022/06/28 12:10:33;;;;;;;2.50;1.50;;;29.20;89.90;;;;;;5037977;28;20646;-84
2022/06/28 12:13:11;;;;;;;4.50;1.87;;;29.20;88.60;;;;;;5042368;28;21023;-84
2022/06/28 12:15:39;;;;;;;1.50;1.40;;;29.30;89.70;;;;;;5043193;28;20679;-84
2022/06/28 12:18:12;;;;;;;2.50;1.70;;;29.40;90.00;;;;;;5043556;28;20621;-83
2022/06/28 12:20:57;;;;;;;1.50;1.40;;;29.40;87.20;;;;;;5042155;28;20735;-82
2022/06/28 12:23:24;;;;;;;1.27;1.17;;;29.50;86.80;;;;;;5041894;28;20614;-83
2022/06/28 12:25:59;;;;;;;2.23;1.40;;;29.60;86.20;;;;;;5037380;28;20622;-82
2022/06/28 12:28:27;;;;;;;3.40;1.60;;;29.60;86.70;;;;;;5042310;28;20630;-83
2022/06/28 12:30:55;;;;;;;2.30;1.50;;;29.50;86.00;;;;;;5042354;28;20664;-82
2022/06/28 12:33:22;;;;;;;2.20;2.00;;;29.30;84.90;;;;;;5042707;28;20641;-82
2022/06/28 12:35:48;;;;;;;1.90;1.80;;;29.30;87.50;;;;;;5044456;28;20630;-82
2022/06/28 12:38:15;;;;;;;2.00;1.63;;;29.40;87.40;;;;;;5041637;28;20642;-82
2022/06/28 12:40:42;;;;;;;1.80;1.70;;;29.40;85.90;;;;;;5024469;28;21169;-82
2022/06/28 12:43:11;;;;;;;1.80;1.70;;;29.30;86.00;;;;;;5029771;28;21451;-82
2022/06/28 12:45:39;;;;;;;2.60;1.57;;;29.20;86.30;;;;;;5042461;28;20667;-82
2022/06/28 12:48:06;;;;;;;1.63;1.53;;;29.00;87.30;;;;;;5039220;28;20658;-82
2022/06/28 12:50:33;;;;;;;3.63;1.80;;;29.00;86.50;;;;;;5045890;28;20676;-81
2022/06/28 12:53:00;;;;;;;1.70;1.50;;;29.00;87.10;;;;;;5034433;28;20717;-81
2022/06/28 12:55:28;;;;;;;1.70;1.60;;;29.00;87.60;;;;;;5039606;28;20625;-82
2022/06/28 12:57:55;;;;;;;2.00;1.80;;;29.00;85.70;;;;;;5038170;28;20645;-82
2022/06/28 13:00:22;;;;;;;3.10;1.50;;;29.10;83.60;;;;;;5041436;28;20661;-82
2022/06/28 13:02:50;;;;;;;2.13;1.50;;;29.10;84.90;;;;;;5041662;28;20637;-82
2022/06/28 13:05:17;;;;;;;1.77;1.60;;;29.10;84.80;;;;;;5043139;28;21223;-82
2022/06/28 13:07:45;;;;;;;1.80;1.70;;;29.20;84.00;;;;;;5039405;28;20634;-82
2022/06/28 13:10:13;;;;;;;1.60;1.50;;;29.20;84.30;;;;;;5040939;28;21247;-82